createdAt,value
2018-07-16T00:00:15.032Z,941.40
2018-07-16T00:01:23.097Z,941.40
2018-07-16T00:02:31.255Z,941.40
2018-07-16T00:03:39.204Z,941.40
2018-07-16T00:04:47.272Z,941.37
2018-07-16T00:05:55.361Z,941.35
2018-07-16T00:07:03.571Z,941.37
2018-07-16T00:08:11.580Z,941.38
2018-07-16T00:09:19.544Z,941.41
2018-07-16T00:10:27.636Z,941.36
2018-07-16T00:11:35.777Z,941.35
2018-07-16T00:12:43.849Z,941.34
2018-07-16T00:13:51.819Z,941.31
2018-07-16T00:14:59.882Z,941.30
2018-07-16T00:16:07.943Z,941.26
2018-07-16T00:17:16.004Z,941.26
2018-07-16T00:18:24.120Z,941.25
2018-07-16T00:19:32.149Z,941.24
2018-07-16T00:20:40.203Z,941.21
2018-07-16T00:21:48.271Z,941.20
2018-07-16T00:22:56.439Z,941.19
2018-07-16T00:24:04.400Z,941.17
2018-07-16T00:25:12.472Z,941.14
2018-07-16T00:26:20.531Z,941.11
2018-07-16T00:27:28.689Z,941.14
2018-07-16T00:28:36.748Z,941.07
2018-07-16T00:29:44.731Z,941.06
2018-07-16T00:30:52.778Z,941.02
2018-07-16T00:32:00.865Z,941.01
2018-07-16T00:33:08.894Z,941.01
2018-07-16T00:34:17.041Z,941.03
2018-07-16T00:35:25.054Z,941.05
2018-07-16T00:36:33.122Z,941.06
2018-07-16T00:37:41.190Z,941.03
2018-07-16T00:38:49.325Z,941.08
2018-07-16T00:39:57.314Z,941.05
2018-07-16T00:41:05.377Z,941.09
2018-07-16T00:42:13.475Z,941.06
2018-07-16T00:43:21.549Z,941.06
2018-07-16T00:44:29.715Z,941.01
2018-07-16T00:45:37.643Z,941.04
2018-07-16T00:46:45.720Z,941.05
2018-07-16T00:47:53.786Z,941.07
2018-07-16T00:49:01.956Z,941.09
2018-07-16T00:50:09.961Z,941.05
2018-07-16T00:51:17.971Z,941.10
2018-07-16T00:52:26.058Z,941.11
2018-07-16T00:53:34.106Z,941.08
2018-07-16T00:54:42.266Z,941.07
2018-07-16T00:55:50.312Z,941.09
2018-07-16T00:56:58.305Z,941.05
2018-07-16T00:58:06.433Z,941.03
2018-07-16T00:59:14.538Z,941.00
2018-07-16T01:00:22.514Z,941.02
2018-07-16T01:01:30.573Z,941.02
2018-07-16T01:02:38.625Z,941.02
2018-07-16T01:03:46.693Z,941.02
2018-07-16T01:04:54.807Z,940.98
2018-07-16T01:06:02.829Z,940.98
2018-07-16T01:07:10.905Z,940.95
2018-07-16T01:08:18.948Z,940.89
2018-07-16T01:09:27.110Z,940.91
2018-07-16T01:10:35.092Z,940.90
2018-07-16T01:11:43.156Z,940.92
2018-07-16T01:12:51.306Z,940.87
2018-07-16T01:13:59.262Z,940.88
2018-07-16T01:15:07.390Z,940.88
2018-07-16T01:16:15.409Z,940.85
2018-07-16T01:17:23.476Z,940.85
2018-07-16T01:18:31.586Z,940.85
2018-07-16T01:19:39.649Z,940.84
2018-07-16T01:20:47.656Z,940.81
2018-07-16T01:21:55.725Z,940.82
2018-07-16T01:23:03.804Z,940.80
2018-07-16T01:24:11.868Z,940.80
2018-07-16T01:25:19.980Z,940.81
2018-07-16T01:26:28.017Z,940.80
2018-07-16T01:27:36.055Z,940.81
2018-07-16T01:28:44.224Z,940.75
2018-07-16T01:29:52.239Z,940.78
2018-07-16T01:31:00.254Z,940.80
2018-07-16T01:32:08.329Z,940.82
2018-07-16T01:33:16.398Z,940.82
2018-07-16T01:34:24.454Z,940.82
2018-07-16T01:35:32.580Z,940.83
2018-07-16T01:36:40.590Z,940.80
2018-07-16T01:37:48.642Z,940.82
2018-07-16T01:38:56.727Z,940.84
2018-07-16T01:40:04.821Z,940.87
2018-07-16T01:41:12.857Z,940.86
2018-07-16T01:42:20.923Z,940.86
2018-07-16T01:43:29.100Z,940.84
2018-07-16T01:44:37.137Z,940.86
2018-07-16T01:45:45.152Z,940.89
2018-07-16T01:46:53.178Z,940.88
2018-07-16T01:48:01.235Z,940.88
2018-07-16T01:49:09.285Z,940.90
2018-07-16T01:50:17.411Z,940.88
2018-07-16T01:51:25.444Z,940.91
2018-07-16T01:52:33.497Z,940.92
2018-07-16T01:53:41.577Z,940.90
2018-07-16T01:54:49.648Z,940.88
2018-07-16T01:55:57.761Z,940.92
2018-07-16T01:57:05.779Z,940.91
2018-07-16T01:58:13.837Z,940.93
2018-07-16T01:59:21.900Z,940.93
2018-07-16T02:00:30.061Z,940.94
2018-07-16T02:01:38.038Z,940.94
2018-07-16T02:02:46.099Z,940.89
2018-07-16T02:03:54.162Z,940.87
2018-07-16T02:05:02.335Z,940.84
2018-07-16T02:06:10.287Z,940.88
2018-07-16T02:07:18.380Z,940.88
2018-07-16T02:08:26.462Z,940.89
2018-07-16T02:09:34.504Z,940.88
2018-07-16T02:10:42.620Z,940.86
2018-07-16T02:11:50.634Z,940.89
2018-07-16T02:12:58.675Z,940.87
2018-07-16T02:14:06.751Z,940.91
2018-07-16T02:15:14.808Z,940.91
2018-07-16T02:16:22.983Z,940.92
2018-07-16T02:17:30.952Z,940.95
2018-07-16T02:18:38.992Z,940.93
2018-07-16T02:19:47.083Z,940.89
2018-07-16T02:20:55.195Z,940.87
2018-07-16T02:22:03.210Z,940.90
2018-07-16T02:23:11.277Z,940.88
2018-07-16T02:24:19.330Z,940.86
2018-07-16T02:25:27.441Z,940.81
2018-07-16T02:26:35.591Z,940.85
2018-07-16T02:27:43.563Z,940.80
2018-07-16T02:28:51.636Z,940.82
2018-07-16T02:29:59.674Z,940.82
2018-07-16T02:31:07.847Z,940.82
2018-07-16T02:32:15.904Z,940.84
2018-07-16T02:33:23.886Z,940.86
2018-07-16T02:34:31.941Z,940.85
2018-07-16T02:35:40.018Z,940.86
2018-07-16T02:36:48.120Z,940.85
2018-07-16T02:37:56.146Z,940.84
2018-07-16T02:39:04.206Z,940.86
2018-07-16T02:40:12.276Z,940.83
2018-07-16T02:41:20.440Z,940.82
2018-07-16T02:42:28.404Z,940.80
2018-07-16T02:43:36.520Z,940.81
2018-07-16T02:44:44.547Z,940.82
2018-07-16T02:45:52.621Z,940.83
2018-07-16T02:47:00.768Z,940.83
2018-07-16T02:48:08.826Z,940.85
2018-07-16T02:49:16.795Z,940.87
2018-07-16T02:50:24.891Z,940.89
2018-07-16T02:51:32.948Z,940.88
2018-07-16T02:52:41.116Z,940.86
2018-07-16T02:53:49.048Z,940.85
2018-07-16T02:54:57.140Z,940.85
2018-07-16T02:56:05.208Z,940.82
2018-07-16T02:57:13.283Z,940.83
2018-07-16T02:58:21.433Z,940.82
2018-07-16T02:59:29.404Z,940.84
2018-07-16T03:00:37.478Z,940.83
2018-07-16T03:01:45.548Z,940.90
2018-07-16T03:02:53.712Z,940.86
2018-07-16T03:04:01.666Z,940.83
2018-07-16T03:05:09.744Z,940.83
2018-07-16T03:06:17.816Z,940.86
2018-07-16T03:07:25.870Z,940.84
2018-07-16T03:08:33.988Z,940.83
2018-07-16T03:09:41.998Z,940.83
2018-07-16T03:10:50.063Z,940.82
2018-07-16T03:11:58.126Z,940.82
2018-07-16T03:13:06.237Z,940.86
2018-07-16T03:14:14.252Z,940.86
2018-07-16T03:15:22.339Z,940.85
2018-07-16T03:16:30.402Z,940.85
2018-07-16T03:17:38.447Z,940.82
2018-07-16T03:18:46.638Z,940.84
2018-07-16T03:19:54.605Z,940.86
2018-07-16T03:21:02.806Z,940.83
2018-07-16T03:22:10.726Z,940.86
2018-07-16T03:23:18.831Z,940.85
2018-07-16T03:24:26.864Z,940.84
2018-07-16T03:25:34.928Z,940.84
2018-07-16T03:26:43.003Z,940.88
2018-07-16T03:27:51.149Z,940.84
2018-07-16T03:28:59.103Z,940.86
2018-07-16T03:30:07.175Z,940.88
2018-07-16T03:31:15.262Z,940.89
2018-07-16T03:32:23.324Z,940.88
2018-07-16T03:33:31.438Z,940.92
2018-07-16T03:34:39.604Z,940.90
2018-07-16T03:35:47.517Z,940.94
2018-07-16T03:36:55.572Z,940.92
2018-07-16T03:38:03.741Z,940.92
2018-07-16T03:39:11.737Z,940.90
2018-07-16T03:40:19.795Z,940.93
2018-07-16T03:41:27.855Z,940.96
2018-07-16T03:42:35.926Z,940.97
2018-07-16T03:43:44.090Z,941.02
2018-07-16T03:44:52.051Z,941.05
2018-07-16T03:46:00.125Z,941.07
2018-07-16T03:47:08.179Z,941.09
2018-07-16T03:48:16.249Z,941.10
2018-07-16T03:49:24.386Z,941.09
2018-07-16T03:50:32.478Z,941.11
2018-07-16T03:51:40.445Z,941.11
2018-07-16T03:52:48.502Z,941.14
2018-07-16T03:53:57.022Z,941.09
2018-07-16T03:55:04.972Z,941.10
2018-07-16T03:56:12.719Z,941.12
2018-07-16T03:57:20.779Z,941.14
2018-07-16T03:58:29.198Z,941.13
2018-07-16T03:59:37.142Z,941.13
2018-07-16T04:00:44.972Z,941.13
2018-07-16T04:01:53.047Z,941.17
2018-07-16T04:03:01.154Z,941.15
2018-07-16T04:04:09.146Z,941.21
2018-07-16T04:05:17.348Z,941.20
2018-07-16T04:06:25.367Z,941.18
2018-07-16T04:07:34.085Z,941.16
2018-07-16T04:08:41.440Z,941.16
2018-07-16T04:09:49.509Z,941.20
2018-07-16T04:10:57.675Z,941.19
2018-07-16T04:12:05.626Z,941.16
2018-07-16T04:13:13.701Z,941.21
2018-07-16T04:14:22.397Z,941.20
2018-07-16T04:15:29.847Z,941.24
2018-07-16T04:16:37.903Z,941.23
2018-07-16T04:17:45.985Z,941.21
2018-07-16T04:18:54.042Z,941.24
2018-07-16T04:20:02.112Z,941.22
2018-07-16T04:21:10.262Z,941.25
2018-07-16T04:22:18.248Z,941.23
2018-07-16T04:23:26.310Z,941.24
2018-07-16T04:24:34.371Z,941.28
2018-07-16T04:25:42.972Z,941.28
2018-07-16T04:26:50.505Z,941.26
2018-07-16T04:27:58.550Z,941.31
2018-07-16T04:29:06.639Z,941.29
2018-07-16T04:30:14.799Z,941.31
2018-07-16T04:31:22.820Z,941.32
2018-07-16T04:32:30.828Z,941.32
2018-07-16T04:33:39.500Z,941.29
2018-07-16T04:34:46.950Z,941.30
2018-07-16T04:35:55.074Z,941.30
2018-07-16T04:37:03.102Z,941.34
2018-07-16T04:38:11.168Z,941.32
2018-07-16T04:39:19.624Z,941.35
2018-07-16T04:40:27.306Z,941.34
2018-07-16T04:41:35.401Z,941.34
2018-07-16T04:42:43.424Z,941.34
2018-07-16T04:43:51.493Z,941.37
2018-07-16T04:44:59.577Z,941.38
2018-07-16T04:46:07.723Z,941.41
2018-07-16T04:47:15.697Z,941.35
2018-07-16T04:48:23.752Z,941.35
2018-07-16T04:49:31.867Z,941.38
2018-07-16T04:50:39.896Z,941.35
2018-07-16T04:51:48.000Z,941.36
2018-07-16T04:52:56.030Z,941.35
2018-07-16T04:54:04.421Z,941.37
2018-07-16T04:55:12.151Z,941.38
2018-07-16T04:56:20.378Z,941.39
2018-07-16T04:57:28.294Z,941.38
2018-07-16T04:58:37.074Z,941.37
2018-07-16T04:59:45.126Z,941.34
2018-07-16T05:00:52.664Z,941.30
2018-07-16T05:02:00.651Z,941.33
2018-07-16T05:03:08.642Z,941.32
2018-07-16T05:04:16.699Z,941.27
2018-07-16T05:05:24.779Z,941.27
2018-07-16T05:06:32.927Z,941.26
2018-07-16T05:07:40.916Z,941.25
2018-07-16T05:08:48.944Z,941.25
2018-07-16T05:09:57.038Z,941.41
2018-07-16T05:11:05.098Z,941.61
2018-07-16T05:12:13.219Z,941.64
2018-07-16T05:13:21.230Z,941.59
2018-07-16T05:14:29.286Z,941.58
2018-07-16T05:15:37.369Z,941.48
2018-07-16T05:16:45.474Z,941.34
2018-07-16T05:17:53.547Z,941.30
2018-07-16T05:19:01.563Z,941.34
2018-07-16T05:20:09.627Z,941.36
2018-07-16T05:21:17.692Z,941.33
2018-07-16T05:22:25.772Z,941.31
2018-07-16T05:23:33.833Z,941.33
2018-07-16T05:24:41.900Z,941.34
2018-07-16T05:25:49.967Z,941.34
2018-07-16T05:26:58.088Z,941.32
2018-07-16T05:28:06.108Z,941.32
2018-07-16T05:29:14.173Z,941.28
2018-07-16T05:30:22.251Z,941.30
2018-07-16T05:31:30.463Z,941.22
2018-07-16T05:32:38.729Z,941.21
2018-07-16T05:33:46.445Z,941.19
2018-07-16T05:34:54.509Z,941.17
2018-07-16T05:36:02.580Z,941.18
2018-07-16T05:37:10.753Z,941.14
2018-07-16T05:38:18.760Z,941.19
2018-07-16T05:39:26.787Z,941.17
2018-07-16T05:40:34.845Z,941.12
2018-07-16T05:41:42.920Z,941.16
2018-07-16T05:42:50.989Z,941.13
2018-07-16T05:43:59.042Z,941.12
2018-07-16T05:45:07.129Z,941.11
2018-07-16T05:46:15.182Z,941.12
2018-07-16T05:47:23.355Z,941.12
2018-07-16T05:48:31.321Z,941.11
2018-07-16T05:49:39.390Z,941.14
2018-07-16T05:50:47.478Z,941.11
2018-07-16T05:51:55.538Z,941.13
2018-07-16T05:53:03.627Z,941.14
2018-07-16T05:54:11.664Z,941.16
2018-07-16T05:55:19.718Z,941.15
2018-07-16T05:56:27.802Z,941.15
2018-07-16T05:57:35.965Z,941.13
2018-07-16T05:58:43.925Z,941.08
2018-07-16T05:59:51.989Z,941.13
2018-07-16T06:01:00.069Z,941.19
2018-07-16T06:02:08.136Z,941.15
2018-07-16T06:03:16.297Z,941.16
2018-07-16T06:04:24.268Z,941.17
2018-07-16T06:05:32.338Z,941.13
2018-07-16T06:06:40.408Z,941.18
2018-07-16T06:07:48.458Z,941.19
2018-07-16T06:08:56.634Z,941.20
2018-07-16T06:10:04.762Z,941.15
2018-07-16T06:11:12.675Z,941.19
2018-07-16T06:12:20.748Z,941.18
2018-07-16T06:13:28.779Z,941.19
2018-07-16T06:14:37.008Z,941.21
2018-07-16T06:15:44.931Z,941.17
2018-07-16T06:16:53.070Z,941.19
2018-07-16T06:18:01.089Z,941.19
2018-07-16T06:19:09.172Z,941.24
2018-07-16T06:20:17.271Z,941.23
2018-07-16T06:21:25.274Z,941.22
2018-07-16T06:22:33.343Z,941.23
2018-07-16T06:23:41.410Z,941.17
2018-07-16T06:24:49.461Z,941.21
2018-07-16T06:25:57.608Z,941.23
2018-07-16T06:27:05.650Z,941.24
2018-07-16T06:28:13.688Z,941.26
2018-07-16T06:29:21.755Z,941.21
2018-07-16T06:30:29.926Z,941.21
2018-07-16T06:31:37.909Z,941.17
2018-07-16T06:32:45.965Z,941.16
2018-07-16T06:33:54.034Z,941.19
2018-07-16T06:35:02.185Z,941.17
2018-07-16T06:36:10.216Z,941.14
2018-07-16T06:37:18.237Z,941.21
2018-07-16T06:38:26.297Z,941.19
2018-07-16T06:39:34.409Z,941.22
2018-07-16T06:40:42.587Z,941.19
2018-07-16T06:41:50.560Z,941.19
2018-07-16T06:42:58.562Z,941.24
2018-07-16T06:44:06.655Z,941.15
2018-07-16T06:45:14.697Z,941.20
2018-07-16T06:46:22.871Z,941.22
2018-07-16T06:47:30.853Z,941.19
2018-07-16T06:48:38.891Z,941.19
2018-07-16T06:49:46.982Z,941.19
2018-07-16T06:50:55.270Z,941.16
2018-07-16T06:52:03.152Z,941.18
2018-07-16T06:53:11.183Z,941.17
2018-07-16T06:54:19.237Z,941.13
2018-07-16T06:55:27.299Z,941.14
2018-07-16T06:56:35.395Z,941.09
2018-07-16T06:57:43.465Z,941.05
2018-07-16T06:58:51.532Z,941.07
2018-07-16T06:59:59.583Z,941.04
2018-07-16T07:01:07.698Z,941.09
2018-07-16T07:02:15.867Z,941.10
2018-07-16T07:03:23.794Z,941.09
2018-07-16T07:04:31.867Z,941.09
2018-07-16T07:05:39.943Z,941.13
2018-07-16T07:06:48.104Z,941.22
2018-07-16T07:07:56.129Z,941.38
2018-07-16T07:09:04.145Z,941.44
2018-07-16T07:10:12.240Z,941.39
2018-07-16T07:11:20.271Z,941.27
2018-07-16T07:12:28.430Z,941.12
2018-07-16T07:13:36.404Z,941.28
2018-07-16T07:14:44.476Z,941.41
2018-07-16T07:15:52.553Z,941.58
2018-07-16T07:17:00.627Z,941.74
2018-07-16T07:18:08.807Z,941.79
2018-07-16T07:19:16.755Z,941.67
2018-07-16T07:20:24.828Z,941.41
2018-07-16T07:21:34.314Z,941.45
2018-07-16T07:22:42.412Z,941.27
2018-07-16T07:23:52.895Z,941.29
2018-07-16T07:25:00.932Z,941.39
2018-07-16T07:26:08.974Z,941.32
2018-07-16T07:27:17.070Z,941.48
2018-07-16T07:28:25.139Z,941.42
2018-07-16T07:29:33.224Z,941.23
2018-07-16T07:30:41.285Z,941.23
2018-07-16T07:31:49.343Z,941.21
2018-07-16T07:32:57.426Z,941.36
2018-07-16T07:34:05.546Z,941.38
2018-07-16T07:35:13.625Z,941.19
2018-07-16T07:36:21.851Z,941.19
2018-07-16T07:37:29.989Z,941.61
2018-07-16T07:38:38.089Z,941.60
2018-07-16T07:39:46.082Z,941.63
2018-07-16T07:40:54.756Z,941.66
2018-07-16T07:42:02.824Z,941.69
2018-07-16T07:43:10.897Z,941.75
2018-07-16T07:44:19.005Z,941.71
2018-07-16T07:45:27.053Z,941.76
2018-07-16T07:46:35.144Z,941.79
2018-07-16T07:47:43.342Z,941.72
2018-07-16T07:48:51.266Z,941.77
2018-07-16T07:49:59.340Z,941.88
2018-07-16T07:51:07.432Z,942.00
2018-07-16T07:52:15.497Z,942.08
2018-07-16T07:53:23.626Z,942.30
2018-07-16T07:54:31.928Z,942.47
2018-07-16T07:55:39.843Z,942.72
2018-07-16T07:56:47.825Z,943.07
2018-07-16T07:57:55.902Z,943.20
2018-07-16T07:59:03.971Z,943.35
2018-07-16T08:00:12.050Z,943.48
2018-07-16T08:01:20.150Z,943.55
2018-07-16T08:02:28.222Z,943.60
2018-07-16T08:03:36.307Z,943.68
2018-07-16T08:04:44.428Z,943.78
2018-07-16T08:05:52.463Z,943.99
2018-07-16T08:07:00.529Z,944.14
2018-07-16T08:08:08.639Z,944.31
2018-07-16T08:09:16.737Z,944.59
2018-07-16T08:10:24.773Z,945.25
2018-07-16T08:11:32.866Z,945.97
2018-07-16T08:12:40.951Z,946.49
2018-07-16T08:13:48.999Z,947.12
2018-07-16T08:14:57.191Z,947.55
2018-07-16T08:16:05.179Z,947.97
2018-07-16T08:17:13.275Z,948.12
2018-07-16T08:18:21.342Z,948.35
2018-07-16T08:19:29.413Z,948.65
2018-07-16T08:20:37.538Z,948.85
2018-07-16T08:21:45.580Z,948.94
2018-07-16T08:22:53.762Z,949.06
2018-07-16T08:24:01.754Z,948.92
2018-07-16T08:25:09.831Z,948.77
2018-07-16T08:26:17.954Z,948.42
2018-07-16T08:27:25.998Z,948.62
2018-07-16T08:28:34.072Z,948.73
2018-07-16T08:29:42.302Z,948.85
2018-07-16T08:30:50.326Z,948.81
2018-07-16T08:31:58.321Z,948.80
2018-07-16T08:33:06.409Z,949.00
2018-07-16T08:34:14.486Z,948.92
2018-07-16T08:35:22.552Z,948.80
2018-07-16T08:36:30.732Z,948.93
2018-07-16T08:37:38.699Z,948.98
2018-07-16T08:38:46.907Z,948.84
2018-07-16T08:39:54.900Z,948.50
2018-07-16T08:41:03.067Z,948.50
2018-07-16T08:42:11.067Z,948.53
2018-07-16T08:43:19.123Z,948.71
2018-07-16T08:44:27.218Z,948.86
2018-07-16T08:45:35.324Z,948.74
2018-07-16T08:46:43.489Z,948.49
2018-07-16T08:47:51.485Z,948.21
2018-07-16T08:48:59.568Z,948.01
2018-07-16T08:50:07.648Z,947.61
2018-07-16T08:51:15.836Z,947.38
2018-07-16T08:52:23.804Z,947.30
2018-07-16T08:53:31.892Z,947.24
2018-07-16T08:54:40.069Z,947.28
2018-07-16T08:55:48.057Z,946.84
2018-07-16T08:56:56.183Z,946.12
2018-07-16T08:58:04.259Z,945.74
2018-07-16T08:59:12.307Z,945.56
2018-07-16T09:00:20.389Z,945.46
2018-07-16T09:01:28.552Z,945.22
2018-07-16T09:02:36.572Z,944.91
2018-07-16T09:03:44.636Z,945.15
2018-07-16T09:04:52.725Z,945.02
2018-07-16T09:06:00.795Z,944.86
2018-07-16T09:07:08.954Z,944.61
2018-07-16T09:08:16.979Z,944.50
2018-07-16T09:09:25.057Z,944.01
2018-07-16T09:10:33.238Z,943.51
2018-07-16T09:11:41.264Z,943.40
2018-07-16T09:12:49.296Z,943.66
2018-07-16T09:13:57.395Z,943.80
2018-07-16T09:15:05.475Z,943.67
2018-07-16T09:16:13.560Z,943.62
2018-07-16T09:17:21.696Z,943.55
2018-07-16T09:18:29.716Z,943.56
2018-07-16T09:19:37.846Z,943.61
2018-07-16T09:20:45.883Z,943.49
2018-07-16T09:21:54.023Z,943.34
2018-07-16T09:23:02.050Z,943.33
2018-07-16T09:24:10.149Z,943.24
2018-07-16T09:25:18.223Z,943.27
2018-07-16T09:26:26.442Z,943.25
2018-07-16T09:27:34.411Z,942.72
2018-07-16T09:28:42.464Z,941.30
2018-07-16T09:29:50.555Z,940.73
2018-07-16T09:30:58.626Z,940.72
2018-07-16T09:32:06.798Z,940.73
2018-07-16T09:33:14.793Z,940.70
2018-07-16T09:34:22.867Z,940.62
2018-07-16T09:35:30.963Z,940.65
2018-07-16T09:36:39.015Z,940.66
2018-07-16T09:37:47.171Z,940.66
2018-07-16T09:38:55.270Z,940.62
2018-07-16T09:40:03.276Z,940.64
2018-07-16T09:41:11.351Z,940.60
2018-07-16T09:42:19.513Z,940.64
2018-07-16T09:43:27.500Z,940.60
2018-07-16T09:44:35.581Z,940.60
2018-07-16T09:45:43.656Z,940.60
2018-07-16T09:46:51.783Z,940.63
2018-07-16T09:47:59.854Z,940.62
2018-07-16T09:49:07.892Z,940.63
2018-07-16T09:50:15.975Z,940.66
2018-07-16T09:51:24.048Z,940.65
2018-07-16T09:52:32.185Z,940.66
2018-07-16T09:53:40.203Z,940.64
2018-07-16T09:54:48.277Z,940.59
2018-07-16T09:55:56.344Z,940.59
2018-07-16T09:57:04.422Z,940.59
2018-07-16T09:58:12.605Z,940.57
2018-07-16T09:59:20.626Z,940.59
2018-07-16T10:00:28.647Z,940.56
2018-07-16T10:01:36.731Z,940.55
2018-07-16T10:02:44.818Z,940.55
2018-07-16T10:03:52.927Z,940.55
2018-07-16T10:05:00.957Z,940.53
2018-07-16T10:06:09.004Z,940.50
2018-07-16T10:07:17.116Z,940.51
2018-07-16T10:08:25.213Z,940.46
2018-07-16T10:09:33.335Z,940.45
2018-07-16T10:10:41.473Z,940.48
2018-07-16T10:11:49.380Z,940.43
2018-07-16T10:12:57.560Z,940.43
2018-07-16T10:14:05.601Z,940.39
2018-07-16T10:15:13.626Z,940.39
2018-07-16T10:16:21.692Z,940.33
2018-07-16T10:17:29.771Z,940.35
2018-07-16T10:18:37.846Z,940.29
2018-07-16T10:19:46.012Z,940.22
2018-07-16T10:20:53.988Z,940.21
2018-07-16T10:22:02.077Z,940.21
2018-07-16T10:23:10.142Z,940.17
2018-07-16T10:24:18.319Z,940.16
2018-07-16T10:25:26.279Z,940.10
2018-07-16T10:26:34.364Z,940.07
2018-07-16T10:27:42.450Z,940.00
2018-07-16T10:28:50.606Z,940.01
2018-07-16T10:29:58.658Z,940.01
2018-07-16T10:31:06.684Z,940.02
2018-07-16T10:32:14.741Z,939.96
2018-07-16T10:33:22.810Z,939.99
2018-07-16T10:34:30.874Z,939.97
2018-07-16T10:35:38.974Z,939.95
2018-07-16T10:36:47.026Z,939.92
2018-07-16T10:37:55.104Z,939.92
2018-07-16T10:39:03.402Z,939.86
2018-07-16T10:40:11.356Z,939.87
2018-07-16T10:41:19.296Z,939.88
2018-07-16T10:42:27.392Z,939.88
2018-07-16T10:43:35.454Z,939.91
2018-07-16T10:44:43.629Z,939.88
2018-07-16T10:45:51.662Z,939.89
2018-07-16T10:46:59.682Z,939.81
2018-07-16T10:48:07.763Z,939.83
2018-07-16T10:49:15.842Z,939.82
2018-07-16T10:50:23.997Z,939.80
2018-07-16T10:51:31.988Z,939.80
2018-07-16T10:52:40.055Z,939.83
2018-07-16T10:53:48.125Z,939.80
2018-07-16T10:54:56.204Z,939.83
2018-07-16T10:56:04.369Z,939.84
2018-07-16T10:57:12.348Z,939.80
2018-07-16T10:58:20.430Z,939.74
2018-07-16T10:59:28.492Z,939.73
2018-07-16T11:00:36.670Z,939.72
2018-07-16T11:01:44.690Z,939.82
2018-07-16T11:02:52.778Z,939.79
2018-07-16T11:04:00.797Z,939.76
2018-07-16T11:05:08.841Z,939.74
2018-07-16T11:06:16.928Z,939.83
2018-07-16T11:07:25.055Z,939.77
2018-07-16T11:08:33.086Z,939.77
2018-07-16T11:09:41.171Z,939.77
2018-07-16T11:10:49.213Z,939.73
2018-07-16T11:11:57.352Z,939.75
2018-07-16T11:13:05.384Z,939.74
2018-07-16T11:14:13.497Z,939.76
2018-07-16T11:15:21.548Z,939.73
2018-07-16T11:16:29.699Z,939.69
2018-07-16T11:17:37.679Z,939.68
2018-07-16T11:18:45.754Z,939.68
2018-07-16T11:19:53.832Z,939.71
2018-07-16T11:21:01.958Z,939.69
2018-07-16T11:22:10.070Z,939.62
2018-07-16T11:23:18.054Z,939.63
2018-07-16T11:24:26.106Z,939.63
2018-07-16T11:25:34.204Z,939.71
2018-07-16T11:26:42.264Z,939.69
2018-07-16T11:27:50.366Z,939.67
2018-07-16T11:28:58.410Z,939.66
2018-07-16T11:30:06.538Z,939.74
2018-07-16T11:31:14.571Z,939.73
2018-07-16T11:32:22.740Z,939.75
2018-07-16T11:33:30.707Z,939.77
2018-07-16T11:34:38.768Z,939.77
2018-07-16T11:35:46.869Z,939.79
2018-07-16T11:36:54.939Z,939.85
2018-07-16T11:38:03.038Z,939.83
2018-07-16T11:39:11.222Z,939.89
2018-07-16T11:40:19.153Z,939.87
2018-07-16T11:41:27.248Z,939.74
2018-07-16T11:42:35.436Z,939.70
2018-07-16T11:43:43.387Z,939.61
2018-07-16T11:44:51.465Z,939.59
2018-07-16T11:45:59.543Z,939.55
2018-07-16T11:47:07.636Z,939.55
2018-07-16T11:48:15.794Z,939.51
2018-07-16T11:49:23.775Z,939.50
2018-07-16T11:50:31.844Z,939.49
2018-07-16T11:51:39.934Z,939.50
2018-07-16T11:52:48.040Z,939.47
2018-07-16T11:53:56.066Z,939.44
2018-07-16T11:55:04.141Z,939.39
2018-07-16T11:56:12.226Z,939.33
2018-07-16T11:57:20.296Z,939.31
2018-07-16T11:58:28.405Z,939.35
2018-07-16T11:59:36.457Z,939.33
2018-07-16T12:00:44.533Z,939.32
2018-07-16T12:01:52.597Z,939.28
2018-07-16T12:03:00.712Z,939.28
2018-07-16T12:04:08.811Z,939.28
2018-07-16T12:05:16.890Z,939.30
2018-07-16T12:06:24.884Z,939.27
2018-07-16T12:07:32.978Z,939.19
2018-07-16T12:08:41.036Z,939.21
2018-07-16T12:09:49.081Z,939.22
2018-07-16T12:10:57.180Z,939.18
2018-07-16T12:12:05.269Z,939.23
2018-07-16T12:13:13.381Z,939.26
2018-07-16T12:14:21.406Z,939.30
2018-07-16T12:15:29.470Z,938.93
2018-07-16T12:16:37.557Z,938.74
2018-07-16T12:17:45.634Z,938.89
2018-07-16T12:18:53.708Z,938.90
2018-07-16T12:20:01.879Z,938.78
2018-07-16T12:21:09.843Z,938.67
2018-07-16T12:22:17.913Z,938.67
2018-07-16T12:23:26.077Z,938.70
2018-07-16T12:24:34.055Z,938.81
2018-07-16T12:25:42.130Z,938.87
2018-07-16T12:26:50.204Z,938.47
2018-07-16T12:27:58.261Z,938.50
2018-07-16T12:29:06.347Z,938.64
2018-07-16T12:30:14.412Z,938.31
2018-07-16T12:31:22.466Z,938.53
2018-07-16T12:32:30.547Z,938.74
2018-07-16T12:33:38.680Z,938.89
2018-07-16T12:34:46.690Z,939.07
2018-07-16T12:35:54.861Z,939.27
2018-07-16T12:37:02.839Z,939.42
2018-07-16T12:38:10.991Z,939.42
2018-07-16T12:39:18.953Z,939.57
2018-07-16T12:40:27.043Z,939.46
2018-07-16T12:41:35.185Z,939.62
2018-07-16T12:42:43.178Z,939.71
2018-07-16T12:43:51.352Z,939.87
2018-07-16T12:44:59.281Z,940.05
2018-07-16T12:46:07.386Z,940.08
2018-07-16T12:47:15.456Z,939.92
2018-07-16T12:48:23.527Z,939.95
2018-07-16T12:49:31.644Z,940.01
2018-07-16T12:50:39.660Z,939.79
2018-07-16T12:51:47.814Z,939.65
2018-07-16T12:52:55.804Z,939.44
2018-07-16T12:54:03.866Z,939.48
2018-07-16T12:55:11.992Z,939.57
2018-07-16T12:56:20.008Z,939.49
2018-07-16T12:57:28.066Z,939.43
2018-07-16T12:58:36.137Z,939.42
2018-07-16T12:59:44.213Z,939.30
2018-07-16T13:00:52.284Z,939.21
2018-07-16T13:02:00.400Z,939.36
2018-07-16T13:03:08.416Z,939.37
2018-07-16T13:04:16.484Z,939.29
2018-07-16T13:05:24.605Z,939.23
2018-07-16T13:06:32.632Z,939.13
2018-07-16T13:07:40.813Z,939.17
2018-07-16T13:08:48.746Z,939.18
2018-07-16T13:09:56.875Z,939.25
2018-07-16T13:11:05.166Z,939.29
2018-07-16T13:12:13.189Z,939.35
2018-07-16T13:13:21.255Z,939.49
2018-07-16T13:14:29.922Z,939.49
2018-07-16T13:15:38.050Z,939.44
2018-07-16T13:16:46.065Z,939.34
2018-07-16T13:17:54.124Z,939.31
2018-07-16T13:19:02.201Z,939.19
2018-07-16T13:20:10.265Z,939.02
2018-07-16T13:21:18.345Z,939.13
2018-07-16T13:22:26.418Z,939.11
2018-07-16T13:23:34.596Z,939.04
2018-07-16T13:24:42.547Z,938.93
2018-07-16T13:25:50.679Z,938.91
2018-07-16T13:26:58.669Z,938.88
2018-07-16T13:28:06.756Z,938.81
2018-07-16T13:29:14.842Z,938.90
2018-07-16T13:30:22.993Z,938.79
2018-07-16T13:31:30.981Z,938.66
2018-07-16T13:32:39.028Z,938.68
2018-07-16T13:33:47.111Z,938.64
2018-07-16T13:34:55.197Z,938.69
2018-07-16T13:36:03.316Z,938.76
2018-07-16T13:37:11.345Z,938.80
2018-07-16T13:38:19.375Z,938.77
2018-07-16T13:39:27.571Z,938.67
2018-07-16T13:40:35.636Z,938.58
2018-07-16T13:41:43.609Z,938.66
2018-07-16T13:42:51.675Z,938.69
2018-07-16T13:43:59.752Z,938.70
2018-07-16T13:45:07.819Z,938.67
2018-07-16T13:46:16.003Z,938.66
2018-07-16T13:47:23.957Z,938.72
2018-07-16T13:48:32.038Z,938.75
2018-07-16T13:49:40.107Z,938.71
2018-07-16T13:50:48.167Z,938.76
2018-07-16T13:51:56.340Z,938.73
2018-07-16T13:53:04.329Z,938.70
2018-07-16T13:54:12.387Z,938.47
2018-07-16T13:55:20.544Z,938.39
2018-07-16T13:56:28.508Z,938.36
2018-07-16T13:57:36.636Z,938.46
2018-07-16T13:58:44.674Z,938.51
2018-07-16T13:59:52.735Z,938.49
2018-07-16T14:01:00.808Z,938.36
2018-07-16T14:02:08.942Z,938.26
2018-07-16T14:03:16.948Z,938.33
2018-07-16T14:04:25.019Z,938.38
2018-07-16T14:05:33.106Z,938.49
2018-07-16T14:06:41.151Z,938.51
2018-07-16T14:07:49.251Z,938.59
2018-07-16T14:08:57.286Z,938.59